Atlanta, IN

12:34 AM EST on February 12, 2016 (GMT -0500)
Becks Corporate | | Change Station
CLOSE
Current Station
Personal Weather Station
Location: Atlanta, IN
Elevation: 866 ft
Nearby Weather Stations

Elev 866 ft 40.19 °N, 86.05 °W | Updated 4 minutes ago

Mostly Cloudy
Mostly Cloudy
18.3 °F
Feels Like 18 °F
N
0.0
Wind Variable Wind from NW
Gusts 0.0 mph

Today
High -- | Low -- °F
--% Chance of Precip.
Yesterday
High -- | Low -- °F
Precip. -- in
Pressure 30.26 in
Visibility 10.0 miles
Clouds Mostly Cloudy 11000 ft
Windchill 18 °F
Dew Point 13 °F
Humidity 81%
Rainfall 0.00 in
Snow Depth Not available.
7:41 AM 6:15 PM
Waxing Crescent, 17% visible
METAR KTYQ 120515Z AUTO 00000KT 10SM BKN110 M07/M11 A3026 RMK AO2 T10731112
Pressure 30.26 in
Visibility 10.0 miles
Clouds Mostly Cloudy 11000 ft
Windchill 18 °F
Dew Point 13 °F
Humidity 81%
Rainfall 0.00 in
Snow Depth Not available.
7:41 AM 6:15 PM
Waxing Crescent, 17% visible
METAR KTYQ 120515Z AUTO 00000KT 10SM BKN110 M07/M11 A3026 RMK AO2 T10731112

10-Day Weather Forecast

Almanac

Astronomy

Feb. 12, 2016 Rise Set
Actual Time
Civil Twilight
Nautical Twilight
Astronomical Twilight
Moon
Length of Visible Light
Length of Day
Tomorrow will be .
, % of the Moon is Illuminated

Today's Extremes

State Highs State Lows

Community

WunderPhotos

Upload Photos

1,892,268 photos uploaded!

WunderBlog® & News

Nearby

Air Quality

  Air Quality AQ Index Pollutant
Not available.

Snow Depth

Station Depth Elevation

Earthquake Activity

City Distance Mag. Time & Date
Minimum magnitude displayed is 2.5.

Coastal Water Temperatures

Place Temperature

Stations

Nearby Weather Stations

Station Location Temp. Windchill Dew Point Humidity Wind Precip. Elev Updated Type
                   

Watches & Warnings

There are currently no watches in effect.